sensor_id;sensor_type;location;lat;lon;timestamp;temperature;humidity
8780;DHT22;62328;51.19929245;4.42130175;2022-12-17T00:00:56;1.70;99.90
8780;DHT22;62328;51.19929245;4.42130175;2022-12-17T00:03:43;1.60;99.90
8780;DHT22;62328;51.19929245;4.42130175;2022-12-17T00:06:28;1.60;99.90
8780;DHT22;62328;51.19929245;4.42130175;2022-12-17T00:09:12;1.60;99.90
8780;DHT22;62328;51.19929245;4.42130175;2022-12-17T00:11:58;1.50;99.90
8780;DHT22;62328;51.19929245;4.42130175;2022-12-17T00:14:43;1.40;99.90
8780;DHT22;62328;51.19929245;4.42130175;2022-12-17T00:17:27;1.40;99.90
8780;DHT22;62328;51.19929245;4.42130175;2022-12-17T00:20:13;1.30;99.90
8780;DHT22;62328;51.19929245;4.42130175;2022-12-17T00:22:58;1.30;99.90
8780;DHT22;62328;51.19929245;4.42130175;2022-12-17T00:25:48;1.40;99.90
8780;DHT22;62328;51.19929245;4.42130175;2022-12-17T00:28:33;1.40;99.90
8780;DHT22;62328;51.19929245;4.42130175;2022-12-17T00:31:18;1.30;99.90
8780;DHT22;62328;51.19929245;4.42130175;2022-12-17T00:34:02;1.30;99.90
8780;DHT22;62328;51.19929245;4.42130175;2022-12-17T00:36:47;1.30;99.90
8780;DHT22;62328;51.19929245;4.42130175;2022-12-17T00:39:43;1.30;99.90
8780;DHT22;62328;51.19929245;4.42130175;2022-12-17T00:42:27;1.30;99.90
8780;DHT22;62328;51.19929245;4.42130175;2022-12-17T00:45:13;1.30;99.90
8780;DHT22;62328;51.19929245;4.42130175;2022-12-17T00:47:58;1.20;99.90
8780;DHT22;62328;51.19929245;4.42130175;2022-12-17T00:50:42;1.20;99.90
8780;DHT22;62328;51.19929245;4.42130175;2022-12-17T00:53:27;1.20;99.90
8780;DHT22;62328;51.19929245;4.42130175;2022-12-17T00:56:13;1.30;99.90
8780;DHT22;62328;51.19929245;4.42130175;2022-12-17T00:58:58;1.30;99.90
8780;DHT22;62328;51.19929245;4.42130175;2022-12-17T01:01:44;1.30;99.90
8780;DHT22;62328;51.19929245;4.42130175;2022-12-17T01:04:28;1.30;99.90
8780;DHT22;62328;51.19929245;4.42130175;2022-12-17T01:07:13;1.30;99.90
8780;DHT22;62328;51.19929245;4.42130175;2022-12-17T01:09:57;1.30;99.90
8780;DHT22;62328;51.19929245;4.42130175;2022-12-17T01:12:42;1.40;99.90
8780;DHT22;62328;51.19929245;4.42130175;2022-12-17T01:15:26;1.40;99.90
8780;DHT22;62328;51.19929245;4.42130175;2022-12-17T01:18:17;1.40;99.90
8780;DHT22;62328;51.19929245;4.42130175;2022-12-17T01:21:01;1.40;99.90
8780;DHT22;62328;51.19929245;4.42130175;2022-12-17T01:23:46;1.50;99.90
8780;DHT22;62328;51.19929245;4.42130175;2022-12-17T01:26:30;1.50;99.90
8780;DHT22;62328;51.19929245;4.42130175;2022-12-17T01:29:15;1.40;99.90
8780;DHT22;62328;51.19929245;4.42130175;2022-12-17T01:31:59;1.30;99.90
8780;DHT22;62328;51.19929245;4.42130175;2022-12-17T01:34:45;1.30;99.90
8780;DHT22;62328;51.19929245;4.42130175;2022-12-17T01:37:29;1.30;99.90
8780;DHT22;62328;51.19929245;4.42130175;2022-12-17T01:40:22;1.30;99.90
8780;DHT22;62328;51.19929245;4.42130175;2022-12-17T01:43:10;1.20;99.90
8780;DHT22;62328;51.19929245;4.42130175;2022-12-17T01:45:55;1.10;99.90
8780;DHT22;62328;51.19929245;4.42130175;2022-12-17T01:48:42;1.00;99.90
8780;DHT22;62328;51.19929245;4.42130175;2022-12-17T01:51:29;1.00;99.90
8780;DHT22;62328;51.19929245;4.42130175;2022-12-17T01:54:14;1.00;99.90
8780;DHT22;62328;51.19929245;4.42130175;2022-12-17T01:57:00;1.00;99.90
8780;DHT22;62328;51.19929245;4.42130175;2022-12-17T01:59:49;1.00;99.90
8780;DHT22;62328;51.19929245;4.42130175;2022-12-17T02:02:35;0.90;99.90
8780;DHT22;62328;51.19929245;4.42130175;2022-12-17T02:05:24;0.90;99.90
8780;DHT22;62328;51.19929245;4.42130175;2022-12-17T02:08:17;0.80;99.90
8780;DHT22;62328;51.19929245;4.42130175;2022-12-17T02:11:09;0.80;99.90
8780;DHT22;62328;51.19929245;4.42130175;2022-12-17T02:14:01;0.80;99.90
8780;DHT22;62328;51.19929245;4.42130175;2022-12-17T02:16:49;0.70;99.90
8780;DHT22;62328;51.19929245;4.42130175;2022-12-17T02:19:41;0.70;99.90
8780;DHT22;62328;51.19929245;4.42130175;2022-12-17T02:22:45;0.80;99.90
8780;DHT22;62328;51.19929245;4.42130175;2022-12-17T02:25:38;0.90;99.90
8780;DHT22;62328;51.19929245;4.42130175;2022-12-17T02:28:32;0.90;99.90
8780;DHT22;62328;51.19929245;4.42130175;2022-12-17T02:31:17;0.90;99.90
8780;DHT22;62328;51.19929245;4.42130175;2022-12-17T02:34:02;1.00;99.90
8780;DHT22;62328;51.19929245;4.42130175;2022-12-17T02:36:46;1.00;99.90
8780;DHT22;62328;51.19929245;4.42130175;2022-12-17T02:39:31;1.00;99.90
8780;DHT22;62328;51.19929245;4.42130175;2022-12-17T02:42:16;1.10;99.90
8780;DHT22;62328;51.19929245;4.42130175;2022-12-17T02:45:02;1.00;99.90
8780;DHT22;62328;51.19929245;4.42130175;2022-12-17T02:47:47;1.00;99.90
8780;DHT22;62328;51.19929245;4.42130175;2022-12-17T02:50:32;1.00;99.90
8780;DHT22;62328;51.19929245;4.42130175;2022-12-17T02:53:18;1.00;99.90
8780;DHT22;62328;51.19929245;4.42130175;2022-12-17T02:56:03;0.90;99.90
8780;DHT22;62328;51.19929245;4.42130175;2022-12-17T02:58:47;0.90;99.90
8780;DHT22;62328;51.19929245;4.42130175;2022-12-17T03:01:33;0.80;99.90
8780;DHT22;62328;51.19929245;4.42130175;2022-12-17T03:04:18;0.80;99.90
8780;DHT22;62328;51.19929245;4.42130175;2022-12-17T03:07:02;0.70;99.90
8780;DHT22;62328;51.19929245;4.42130175;2022-12-17T03:09:47;0.80;99.90
8780;DHT22;62328;51.19929245;4.42130175;2022-12-17T03:12:31;0.70;99.90
8780;DHT22;62328;51.19929245;4.42130175;2022-12-17T03:15:15;0.70;99.90
8780;DHT22;62328;51.19929245;4.42130175;2022-12-17T03:18:01;0.60;99.90
8780;DHT22;62328;51.19929245;4.42130175;2022-12-17T03:20:57;0.70;99.90
8780;DHT22;62328;51.19929245;4.42130175;2022-12-17T03:23:41;0.70;99.90
8780;DHT22;62328;51.19929245;4.42130175;2022-12-17T03:26:25;0.70;99.90
8780;DHT22;62328;51.19929245;4.42130175;2022-12-17T03:29:10;0.60;99.90
8780;DHT22;62328;51.19929245;4.42130175;2022-12-17T03:31:54;0.60;99.90
8780;DHT22;62328;51.19929245;4.42130175;2022-12-17T03:34:40;0.70;99.90
8780;DHT22;62328;51.19929245;4.42130175;2022-12-17T03:37:24;0.70;99.90
8780;DHT22;62328;51.19929245;4.42130175;2022-12-17T03:40:09;0.70;99.90
8780;DHT22;62328;51.19929245;4.42130175;2022-12-17T03:42:50;0.70;99.90
8780;DHT22;62328;51.19929245;4.42130175;2022-12-17T03:45:35;0.70;99.90
8780;DHT22;62328;51.19929245;4.42130175;2022-12-17T03:48:19;0.80;99.90
8780;DHT22;62328;51.19929245;4.42130175;2022-12-17T03:51:05;0.80;99.90
8780;DHT22;62328;51.19929245;4.42130175;2022-12-17T03:53:50;0.80;99.90
8780;DHT22;62328;51.19929245;4.42130175;2022-12-17T03:56:34;0.80;99.90
8780;DHT22;62328;51.19929245;4.42130175;2022-12-17T03:59:19;0.80;99.90
8780;DHT22;62328;51.19929245;4.42130175;2022-12-17T04:02:04;0.80;99.90
8780;DHT22;62328;51.19929245;4.42130175;2022-12-17T04:04:48;0.80;99.90
8780;DHT22;62328;51.19929245;4.42130175;2022-12-17T04:07:34;0.70;99.90
8780;DHT22;62328;51.19929245;4.42130175;2022-12-17T04:10:18;0.70;99.90
8780;DHT22;62328;51.19929245;4.42130175;2022-12-17T04:13:02;0.70;99.90
8780;DHT22;62328;51.19929245;4.42130175;2022-12-17T04:15:47;0.70;99.90
8780;DHT22;62328;51.19929245;4.42130175;2022-12-17T04:18:33;0.60;99.90
8780;DHT22;62328;51.19929245;4.42130175;2022-12-17T04:21:18;0.60;99.90
8780;DHT22;62328;51.19929245;4.42130175;2022-12-17T04:24:05;0.60;99.90
8780;DHT22;62328;51.19929245;4.42130175;2022-12-17T04:26:49;0.60;99.90
8780;DHT22;62328;51.19929245;4.42130175;2022-12-17T04:29:34;0.60;99.90
8780;DHT22;62328;51.19929245;4.42130175;2022-12-17T04:32:18;0.50;99.90
8780;DHT22;62328;51.19929245;4.42130175;2022-12-17T04:35:03;0.50;99.90
8780;DHT22;62328;51.19929245;4.42130175;2022-12-17T04:37:48;0.50;99.90
8780;DHT22;62328;51.19929245;4.42130175;2022-12-17T04:40:33;0.40;99.90
8780;DHT22;62328;51.19929245;4.42130175;2022-12-17T04:43:17;0.40;99.90
8780;DHT22;62328;51.19929245;4.42130175;2022-12-17T04:46:02;0.40;99.90
8780;DHT22;62328;51.19929245;4.42130175;2022-12-17T04:48:46;0.40;99.90
8780;DHT22;62328;51.19929245;4.42130175;2022-12-17T04:51:30;0.30;99.90
8780;DHT22;62328;51.19929245;4.42130175;2022-12-17T04:54:14;0.30;99.90
8780;DHT22;62328;51.19929245;4.42130175;2022-12-17T04:57:00;0.30;99.90
8780;DHT22;62328;51.19929245;4.42130175;2022-12-17T04:59:45;0.30;99.90
8780;DHT22;62328;51.19929245;4.42130175;2022-12-17T05:02:29;0.40;99.90
8780;DHT22;62328;51.19929245;4.42130175;2022-12-17T05:05:13;0.40;99.90
8780;DHT22;62328;51.19929245;4.42130175;2022-12-17T05:07:55;0.40;99.90
8780;DHT22;62328;51.19929245;4.42130175;2022-12-17T05:10:39;0.40;99.90
8780;DHT22;62328;51.19929245;4.42130175;2022-12-17T05:13:25;0.40;99.90
8780;DHT22;62328;51.19929245;4.42130175;2022-12-17T05:16:11;0.40;99.90
8780;DHT22;62328;51.19929245;4.42130175;2022-12-17T05:18:55;0.50;99.90
8780;DHT22;62328;51.19929245;4.42130175;2022-12-17T05:21:39;0.40;99.90
8780;DHT22;62328;51.19929245;4.42130175;2022-12-17T05:24:24;0.40;99.90
8780;DHT22;62328;51.19929245;4.42130175;2022-12-17T05:27:08;0.40;99.90
8780;DHT22;62328;51.19929245;4.42130175;2022-12-17T05:29:54;0.40;99.90
8780;DHT22;62328;51.19929245;4.42130175;2022-12-17T05:32:38;0.40;99.90
8780;DHT22;62328;51.19929245;4.42130175;2022-12-17T05:35:23;0.40;99.90
8780;DHT22;62328;51.19929245;4.42130175;2022-12-17T05:38:09;0.50;99.90
8780;DHT22;62328;51.19929245;4.42130175;2022-12-17T05:40:55;0.40;99.90
8780;DHT22;62328;51.19929245;4.42130175;2022-12-17T05:43:39;0.30;99.90
8780;DHT22;62328;51.19929245;4.42130175;2022-12-17T05:46:25;0.40;99.90
8780;DHT22;62328;51.19929245;4.42130175;2022-12-17T05:49:24;0.30;99.90
8780;DHT22;62328;51.19929245;4.42130175;2022-12-17T05:52:08;0.30;99.90
8780;DHT22;62328;51.19929245;4.42130175;2022-12-17T05:54:53;0.20;99.90
8780;DHT22;62328;51.19929245;4.42130175;2022-12-17T05:57:37;0.20;99.90
8780;DHT22;62328;51.19929245;4.42130175;2022-12-17T06:00:22;0.10;99.90
8780;DHT22;62328;51.19929245;4.42130175;2022-12-17T06:03:08;0.20;99.90
8780;DHT22;62328;51.19929245;4.42130175;2022-12-17T06:05:54;0.20;99.90
8780;DHT22;62328;51.19929245;4.42130175;2022-12-17T06:08:39;0.20;99.90
8780;DHT22;62328;51.19929245;4.42130175;2022-12-17T06:11:23;0.20;99.90
8780;DHT22;62328;51.19929245;4.42130175;2022-12-17T06:14:08;0.20;99.90
8780;DHT22;62328;51.19929245;4.42130175;2022-12-17T06:16:53;0.20;99.90
8780;DHT22;62328;51.19929245;4.42130175;2022-12-17T06:19:39;0.30;99.90
8780;DHT22;62328;51.19929245;4.42130175;2022-12-17T06:22:23;0.30;99.90
8780;DHT22;62328;51.19929245;4.42130175;2022-12-17T06:25:08;0.20;99.90
8780;DHT22;62328;51.19929245;4.42130175;2022-12-17T06:27:57;0.30;99.90
8780;DHT22;62328;51.19929245;4.42130175;2022-12-17T06:30:49;0.30;99.90
8780;DHT22;62328;51.19929245;4.42130175;2022-12-17T06:33:42;0.30;99.90
8780;DHT22;62328;51.19929245;4.42130175;2022-12-17T06:36:30;0.30;99.90
8780;DHT22;62328;51.19929245;4.42130175;2022-12-17T06:39:16;0.20;99.90
8780;DHT22;62328;51.19929245;4.42130175;2022-12-17T06:42:05;0.30;99.90
8780;DHT22;62328;51.19929245;4.42130175;2022-12-17T06:44:50;0.20;99.90
8780;DHT22;62328;51.19929245;4.42130175;2022-12-17T06:47:38;0.10;99.90
8780;DHT22;62328;51.19929245;4.42130175;2022-12-17T06:50:23;0.10;99.90
8780;DHT22;62328;51.19929245;4.42130175;2022-12-17T06:53:10;0.00;99.90
8780;DHT22;62328;51.19929245;4.42130175;2022-12-17T06:55:56;0.00;99.90
8780;DHT22;62328;51.19929245;4.42130175;2022-12-17T06:58:40;0.00;99.90
8780;DHT22;62328;51.19929245;4.42130175;2022-12-17T07:01:25;0.20;99.90
8780;DHT22;62328;51.19929245;4.42130175;2022-12-17T07:04:10;0.10;99.90
8780;DHT22;62328;51.19929245;4.42130175;2022-12-17T07:06:58;0.00;99.90
8780;DHT22;62328;51.19929245;4.42130175;2022-12-17T07:09:44;-0.10;99.90
8780;DHT22;62328;51.19929245;4.42130175;2022-12-17T07:12:30;-0.20;99.90
8780;DHT22;62328;51.19929245;4.42130175;2022-12-17T07:15:14;-0.30;99.90
8780;DHT22;62328;51.19929245;4.42130175;2022-12-17T07:18:00;-0.40;99.90
8780;DHT22;62328;51.19929245;4.42130175;2022-12-17T07:20:46;-0.40;99.90
8780;DHT22;62328;51.19929245;4.42130175;2022-12-17T07:23:31;-0.40;99.90
8780;DHT22;62328;51.19929245;4.42130175;2022-12-17T07:26:17;-0.50;99.90
8780;DHT22;62328;51.19929245;4.42130175;2022-12-17T07:29:01;-0.50;99.90
8780;DHT22;62328;51.19929245;4.42130175;2022-12-17T07:31:46;-0.40;99.90
8780;DHT22;62328;51.19929245;4.42130175;2022-12-17T07:34:30;-0.50;99.90
8780;DHT22;62328;51.19929245;4.42130175;2022-12-17T07:37:14;-0.50;99.90
8780;DHT22;62328;51.19929245;4.42130175;2022-12-17T07:39:58;-0.50;99.90
8780;DHT22;62328;51.19929245;4.42130175;2022-12-17T07:42:44;-0.50;99.90
8780;DHT22;62328;51.19929245;4.42130175;2022-12-17T07:45:29;-0.50;99.90
8780;DHT22;62328;51.19929245;4.42130175;2022-12-17T07:48:13;-0.50;99.90
8780;DHT22;62328;51.19929245;4.42130175;2022-12-17T07:51:12;-0.50;99.90
8780;DHT22;62328;51.19929245;4.42130175;2022-12-17T07:53:57;-0.50;99.90
8780;DHT22;62328;51.19929245;4.42130175;2022-12-17T07:56:41;-0.50;99.90
8780;DHT22;62328;51.19929245;4.42130175;2022-12-17T07:59:27;-0.40;99.90
8780;DHT22;62328;51.19929245;4.42130175;2022-12-17T08:02:12;-0.30;99.90
8780;DHT22;62328;51.19929245;4.42130175;2022-12-17T08:04:56;-0.30;99.90
8780;DHT22;62328;51.19929245;4.42130175;2022-12-17T08:07:40;-0.30;99.90
8780;DHT22;62328;51.19929245;4.42130175;2022-12-17T08:10:25;-0.30;99.90
8780;DHT22;62328;51.19929245;4.42130175;2022-12-17T08:13:09;-0.40;99.90
8780;DHT22;62328;51.19929245;4.42130175;2022-12-17T08:15:56;-0.40;99.90
8780;DHT22;62328;51.19929245;4.42130175;2022-12-17T08:18:40;-0.30;99.90
8780;DHT22;62328;51.19929245;4.42130175;2022-12-17T08:21:24;-0.30;99.90
8780;DHT22;62328;51.19929245;4.42130175;2022-12-17T08:24:08;-0.30;99.90
8780;DHT22;62328;51.19929245;4.42130175;2022-12-17T08:26:53;-0.40;99.90
8780;DHT22;62328;51.19929245;4.42130175;2022-12-17T08:29:37;-0.40;99.90
8780;DHT22;62328;51.19929245;4.42130175;2022-12-17T08:32:23;-0.50;99.90
8780;DHT22;62328;51.19929245;4.42130175;2022-12-17T08:35:08;-0.60;99.90
8780;DHT22;62328;51.19929245;4.42130175;2022-12-17T08:37:52;-0.50;99.90
8780;DHT22;62328;51.19929245;4.42130175;2022-12-17T08:40:37;-0.70;99.90
8780;DHT22;62328;51.19929245;4.42130175;2022-12-17T08:43:21;-0.60;99.90
8780;DHT22;62328;51.19929245;4.42130175;2022-12-17T08:46:05;-0.60;99.90
8780;DHT22;62328;51.19929245;4.42130175;2022-12-17T08:48:51;-0.60;99.90
8780;DHT22;62328;51.19929245;4.42130175;2022-12-17T08:51:35;-0.50;99.90
8780;DHT22;62328;51.19929245;4.42130175;2022-12-17T08:54:19;-0.40;99.90
8780;DHT22;62328;51.19929245;4.42130175;2022-12-17T08:57:04;-0.30;99.90
8780;DHT22;62328;51.19929245;4.42130175;2022-12-17T08:59:48;-0.20;99.90
8780;DHT22;62328;51.19929245;4.42130175;2022-12-17T09:02:32;-0.10;99.90
8780;DHT22;62328;51.19929245;4.42130175;2022-12-17T09:05:18;-0.10;99.90
8780;DHT22;62328;51.19929245;4.42130175;2022-12-17T09:08:04;-0.10;99.90
8780;DHT22;62328;51.19929245;4.42130175;2022-12-17T09:10:49;0.00;99.90
8780;DHT22;62328;51.19929245;4.42130175;2022-12-17T09:13:33;0.00;99.90
8780;DHT22;62328;51.19929245;4.42130175;2022-12-17T09:16:17;0.00;99.90
8780;DHT22;62328;51.19929245;4.42130175;2022-12-17T09:19:04;0.00;99.90
8780;DHT22;62328;51.19929245;4.42130175;2022-12-17T09:21:50;0.00;99.90
8780;DHT22;62328;51.19929245;4.42130175;2022-12-17T09:24:34;0.00;99.90
8780;DHT22;62328;51.19929245;4.42130175;2022-12-17T09:27:27;0.10;99.90
8780;DHT22;62328;51.19929245;4.42130175;2022-12-17T09:30:12;0.20;99.90
8780;DHT22;62328;51.19929245;4.42130175;2022-12-17T09:32:56;0.10;99.90
8780;DHT22;62328;51.19929245;4.42130175;2022-12-17T09:35:40;0.20;99.90
8780;DHT22;62328;51.19929245;4.42130175;2022-12-17T09:38:26;0.10;99.90
8780;DHT22;62328;51.19929245;4.42130175;2022-12-17T09:41:18;0.10;99.90
8780;DHT22;62328;51.19929245;4.42130175;2022-12-17T09:44:11;0.20;99.90
8780;DHT22;62328;51.19929245;4.42130175;2022-12-17T09:47:04;0.40;99.90
8780;DHT22;62328;51.19929245;4.42130175;2022-12-17T09:49:51;0.40;99.90
8780;DHT22;62328;51.19929245;4.42130175;2022-12-17T09:52:39;0.40;99.90
8780;DHT22;62328;51.19929245;4.42130175;2022-12-17T09:55:40;0.50;99.90
8780;DHT22;62328;51.19929245;4.42130175;2022-12-17T09:58:29;0.50;99.90
8780;DHT22;62328;51.19929245;4.42130175;2022-12-17T10:01:16;0.50;99.90
8780;DHT22;62328;51.19929245;4.42130175;2022-12-17T10:04:01;0.50;99.90
8780;DHT22;62328;51.19929245;4.42130175;2022-12-17T10:06:46;0.60;99.90
8780;DHT22;62328;51.19929245;4.42130175;2022-12-17T10:09:33;0.60;99.90
8780;DHT22;62328;51.19929245;4.42130175;2022-12-17T10:12:20;0.70;99.90
8780;DHT22;62328;51.19929245;4.42130175;2022-12-17T10:15:06;0.60;99.90
8780;DHT22;62328;51.19929245;4.42130175;2022-12-17T10:17:50;0.70;99.90
8780;DHT22;62328;51.19929245;4.42130175;2022-12-17T10:20:37;0.80;99.90
8780;DHT22;62328;51.19929245;4.42130175;2022-12-17T10:23:24;0.90;99.90
8780;DHT22;62328;51.19929245;4.42130175;2022-12-17T10:26:12;0.90;99.90
8780;DHT22;62328;51.19929245;4.42130175;2022-12-17T10:29:09;1.00;99.90
8780;DHT22;62328;51.19929245;4.42130175;2022-12-17T10:31:58;1.00;99.90
8780;DHT22;62328;51.19929245;4.42130175;2022-12-17T10:34:44;1.20;99.90
8780;DHT22;62328;51.19929245;4.42130175;2022-12-17T10:37:30;1.10;99.90
8780;DHT22;62328;51.19929245;4.42130175;2022-12-17T10:40:23;1.20;99.90
8780;DHT22;62328;51.19929245;4.42130175;2022-12-17T10:43:22;1.30;99.90
8780;DHT22;62328;51.19929245;4.42130175;2022-12-17T10:46:09;1.30;99.90
8780;DHT22;62328;51.19929245;4.42130175;2022-12-17T10:49:03;1.40;99.90
8780;DHT22;62328;51.19929245;4.42130175;2022-12-17T10:51:48;1.40;99.90
8780;DHT22;62328;51.19929245;4.42130175;2022-12-17T10:54:33;1.40;99.90
8780;DHT22;62328;51.19929245;4.42130175;2022-12-17T10:57:23;1.40;99.90
8780;DHT22;62328;51.19929245;4.42130175;2022-12-17T11:00:25;1.40;99.90
8780;DHT22;62328;51.19929245;4.42130175;2022-12-17T11:03:29;1.50;99.90
8780;DHT22;62328;51.19929245;4.42130175;2022-12-17T11:06:19;1.60;99.90
8780;DHT22;62328;51.19929245;4.42130175;2022-12-17T11:09:07;1.60;99.90
8780;DHT22;62328;51.19929245;4.42130175;2022-12-17T11:11:56;1.60;99.90
8780;DHT22;62328;51.19929245;4.42130175;2022-12-17T11:14:46;1.60;99.90
8780;DHT22;62328;51.19929245;4.42130175;2022-12-17T11:17:35;1.60;99.90
8780;DHT22;62328;51.19929245;4.42130175;2022-12-17T11:20:25;1.60;99.90
8780;DHT22;62328;51.19929245;4.42130175;2022-12-17T11:23:16;1.70;99.90
8780;DHT22;62328;51.19929245;4.42130175;2022-12-17T11:26:05;1.80;99.90
8780;DHT22;62328;51.19929245;4.42130175;2022-12-17T11:28:50;1.80;99.90
8780;DHT22;62328;51.19929245;4.42130175;2022-12-17T11:34:58;1.90;99.90
8780;DHT22;62328;51.19929245;4.42130175;2022-12-17T11:37:56;2.00;99.90
8780;DHT22;62328;51.19929245;4.42130175;2022-12-17T11:41:00;2.00;99.90
8780;DHT22;62328;51.19929245;4.42130175;2022-12-17T11:43:53;2.10;99.90
8780;DHT22;62328;51.19929245;4.42130175;2022-12-17T11:46:46;2.10;99.90
8780;DHT22;62328;51.19929245;4.42130175;2022-12-17T11:49:39;2.20;99.90
8780;DHT22;62328;51.19929245;4.42130175;2022-12-17T11:52:31;2.20;99.90
8780;DHT22;62328;51.19929245;4.42130175;2022-12-17T11:55:35;2.30;99.90
8780;DHT22;62328;51.19929245;4.42130175;2022-12-17T11:58:31;2.20;99.90
8780;DHT22;62328;51.19929245;4.42130175;2022-12-17T12:01:22;2.20;99.90
8780;DHT22;62328;51.19929245;4.42130175;2022-12-17T12:04:20;2.20;99.90
8780;DHT22;62328;51.19929245;4.42130175;2022-12-17T12:07:14;2.20;99.90
8780;DHT22;62328;51.19929245;4.42130175;2022-12-17T12:10:04;2.10;99.90
8780;DHT22;62328;51.19929245;4.42130175;2022-12-17T12:13:00;2.00;99.90
8780;DHT22;62328;51.19929245;4.42130175;2022-12-17T12:15:57;1.90;99.90
8780;DHT22;62328;51.19929245;4.42130175;2022-12-17T12:18:53;1.80;99.90
8780;DHT22;62328;51.19929245;4.42130175;2022-12-17T12:21:47;1.70;99.90
8780;DHT22;62328;51.19929245;4.42130175;2022-12-17T12:24:50;1.70;99.90
8780;DHT22;62328;51.19929245;4.42130175;2022-12-17T12:27:46;1.70;99.90
8780;DHT22;62328;51.19929245;4.42130175;2022-12-17T12:30:50;1.60;99.90
8780;DHT22;62328;51.19929245;4.42130175;2022-12-17T12:33:44;1.40;99.90
8780;DHT22;62328;51.19929245;4.42130175;2022-12-17T12:36:31;1.50;99.90
8780;DHT22;62328;51.19929245;4.42130175;2022-12-17T12:39:19;1.50;99.90
8780;DHT22;62328;51.19929245;4.42130175;2022-12-17T12:42:13;1.50;99.90
8780;DHT22;62328;51.19929245;4.42130175;2022-12-17T12:45:03;1.50;99.90
8780;DHT22;62328;51.19929245;4.42130175;2022-12-17T12:47:55;1.50;99.90
8780;DHT22;62328;51.19929245;4.42130175;2022-12-17T12:50:47;1.40;99.90
8780;DHT22;62328;51.19929245;4.42130175;2022-12-17T12:53:38;1.40;99.90
8780;DHT22;62328;51.19929245;4.42130175;2022-12-17T12:56:28;1.40;99.90
8780;DHT22;62328;51.19929245;4.42130175;2022-12-17T12:59:23;1.30;99.90
8780;DHT22;62328;51.19929245;4.42130175;2022-12-17T13:02:18;1.40;99.90
8780;DHT22;62328;51.19929245;4.42130175;2022-12-17T13:05:22;1.30;99.90
8780;DHT22;62328;51.19929245;4.42130175;2022-12-17T13:10:47;1.20;99.90
8780;DHT22;62328;51.19929245;4.42130175;2022-12-17T13:13:30;1.20;99.90
8780;DHT22;62328;51.19929245;4.42130175;2022-12-17T13:16:15;1.20;99.90
8780;DHT22;62328;51.19929245;4.42130175;2022-12-17T13:18:47;1.20;99.90
8780;DHT22;62328;51.19929245;4.42130175;2022-12-17T13:21:25;1.20;99.90
8780;DHT22;62328;51.19929245;4.42130175;2022-12-17T13:23:54;1.10;99.90
8780;DHT22;62328;51.19929245;4.42130175;2022-12-17T13:26:23;1.10;99.90
8780;DHT22;62328;51.19929245;4.42130175;2022-12-17T13:29:00;1.10;99.90
8780;DHT22;62328;51.19929245;4.42130175;2022-12-17T13:31:29;1.10;99.90
8780;DHT22;62328;51.19929245;4.42130175;2022-12-17T13:34:03;1.10;99.90
8780;DHT22;62328;51.19929245;4.42130175;2022-12-17T13:36:43;1.10;99.90
8780;DHT22;62328;51.19929245;4.42130175;2022-12-17T13:39:30;1.00;99.90
8780;DHT22;62328;51.19929245;4.42130175;2022-12-17T13:41:59;1.10;99.90
8780;DHT22;62328;51.19929245;4.42130175;2022-12-17T13:44:33;1.10;99.90
8780;DHT22;62328;51.19929245;4.42130175;2022-12-17T13:47:01;1.20;99.90
8780;DHT22;62328;51.19929245;4.42130175;2022-12-17T13:49:30;1.10;99.90
8780;DHT22;62328;51.19929245;4.42130175;2022-12-17T13:52:03;1.10;99.90
8780;DHT22;62328;51.19929245;4.42130175;2022-12-17T13:54:30;1.10;99.90
8780;DHT22;62328;51.19929245;4.42130175;2022-12-17T13:57:06;1.10;99.90
8780;DHT22;62328;51.19929245;4.42130175;2022-12-17T13:59:33;1.00;99.90
8780;DHT22;62328;51.19929245;4.42130175;2022-12-17T14:02:00;1.00;99.90
8780;DHT22;62328;51.19929245;4.42130175;2022-12-17T14:04:28;1.00;99.90
8780;DHT22;62328;51.19929245;4.42130175;2022-12-17T14:06:58;1.00;99.90
8780;DHT22;62328;51.19929245;4.42130175;2022-12-17T14:09:31;0.90;99.90
8780;DHT22;62328;51.19929245;4.42130175;2022-12-17T14:12:01;1.00;99.90
8780;DHT22;62328;51.19929245;4.42130175;2022-12-17T14:14:47;1.10;99.90
8780;DHT22;62328;51.19929245;4.42130175;2022-12-17T14:17:17;1.10;99.90
8780;DHT22;62328;51.19929245;4.42130175;2022-12-17T14:19:45;1.20;99.90
8780;DHT22;62328;51.19929245;4.42130175;2022-12-17T14:22:17;1.20;99.90
8780;DHT22;62328;51.19929245;4.42130175;2022-12-17T14:24:46;1.20;99.90
8780;DHT22;62328;51.19929245;4.42130175;2022-12-17T14:27:21;1.20;99.90
8780;DHT22;62328;51.19929245;4.42130175;2022-12-17T14:29:49;1.20;99.90
8780;DHT22;62328;51.19929245;4.42130175;2022-12-17T14:32:31;1.20;99.90
8780;DHT22;62328;51.19929245;4.42130175;2022-12-17T14:34:58;1.20;99.90
8780;DHT22;62328;51.19929245;4.42130175;2022-12-17T14:37:25;1.20;99.90
8780;DHT22;62328;51.19929245;4.42130175;2022-12-17T14:39:59;1.10;99.90
8780;DHT22;62328;51.19929245;4.42130175;2022-12-17T14:42:29;1.10;99.90
8780;DHT22;62328;51.19929245;4.42130175;2022-12-17T14:45:03;1.10;99.90
8780;DHT22;62328;51.19929245;4.42130175;2022-12-17T14:47:32;1.10;99.90
8780;DHT22;62328;51.19929245;4.42130175;2022-12-17T14:50:04;1.10;99.90
8780;DHT22;62328;51.19929245;4.42130175;2022-12-17T14:52:36;1.00;99.90
8780;DHT22;62328;51.19929245;4.42130175;2022-12-17T14:55:27;1.00;99.90
8780;DHT22;62328;51.19929245;4.42130175;2022-12-17T14:58:16;1.00;99.90
8780;DHT22;62328;51.19929245;4.42130175;2022-12-17T15:00:46;1.00;99.90
8780;DHT22;62328;51.19929245;4.42130175;2022-12-17T15:03:18;0.90;99.90
8780;DHT22;62328;51.19929245;4.42130175;2022-12-17T15:05:50;0.90;99.90
8780;DHT22;62328;51.19929245;4.42130175;2022-12-17T15:08:17;0.80;99.90
8780;DHT22;62328;51.19929245;4.42130175;2022-12-17T15:10:46;0.80;99.90
8780;DHT22;62328;51.19929245;4.42130175;2022-12-17T15:13:13;0.80;99.90
8780;DHT22;62328;51.19929245;4.42130175;2022-12-17T15:15:40;0.80;99.90
8780;DHT22;62328;51.19929245;4.42130175;2022-12-17T15:18:07;0.70;99.90
8780;DHT22;62328;51.19929245;4.42130175;2022-12-17T15:20:33;0.70;99.90
8780;DHT22;62328;51.19929245;4.42130175;2022-12-17T15:23:01;0.70;99.90
8780;DHT22;62328;51.19929245;4.42130175;2022-12-17T15:25:28;0.80;99.90
8780;DHT22;62328;51.19929245;4.42130175;2022-12-17T15:27:56;0.80;99.90